Time;durP1;ratioP1;P1;durP2;ratioP2;P2;SDS_P1;SDS_P2;PMS_P1;PMS_P2;Temp;Humidity;BMP_temperature;BMP_pressure;BME280_temperature;BME280_humidity;BME280_pressure;Samples;Min_cycle;Max_cycle;Signal;HPM_P1;HPM_P2
2023/09/30 00:01:31;;;;;;;16.00;6.60;;;14.20;99.90;;;;;;7295450;19;20204;-81
2023/09/30 00:04:15;;;;;;;11.03;5.67;;;14.30;99.90;;;;;;7309938;19;20197;-82
2023/09/30 00:06:43;;;;;;;16.23;6.53;;;14.30;99.90;;;;;;7305544;19;20196;-81
2023/09/30 00:09:18;;;;;;;13.87;6.07;;;14.30;99.90;;;;;;7303250;19;20182;-82
2023/09/30 00:11:50;;;;;;;16.33;6.67;;;14.10;99.90;;;;;;7305128;19;20195;-82
2023/09/30 00:14:23;;;;;;;14.57;6.30;;;13.90;99.90;;;;;;7302297;19;20196;-82
2023/09/30 00:16:54;;;;;;;11.23;6.10;;;13.80;99.90;;;;;;7302867;19;20201;-82
2023/09/30 00:19:22;;;;;;;17.13;6.80;;;13.80;99.90;;;;;;7302941;19;20235;-82
2023/09/30 00:22:00;;;;;;;14.47;7.20;;;13.70;99.90;;;;;;7305218;19;20175;-82
2023/09/30 00:24:27;;;;;;;16.37;6.77;;;13.70;99.90;;;;;;7303043;19;20188;-82
2023/09/30 00:26:56;;;;;;;15.50;6.83;;;13.70;99.90;;;;;;7309207;19;20847;-82
2023/09/30 00:29:24;;;;;;;14.80;6.57;;;13.70;99.90;;;;;;7308261;19;20563;-82
2023/09/30 00:31:52;;;;;;;12.77;6.57;;;13.70;99.90;;;;;;7308245;19;20259;-82
2023/09/30 00:34:20;;;;;;;14.10;7.30;;;13.80;99.90;;;;;;7305215;19;20193;-82
2023/09/30 00:36:49;;;;;;;13.43;6.97;;;13.70;99.90;;;;;;7307770;19;20189;-82
2023/09/30 00:39:16;;;;;;;14.70;7.23;;;13.70;99.90;;;;;;7305939;19;20214;-82
2023/09/30 00:41:41;;;;;;;15.63;7.23;;;13.80;99.90;;;;;;7305921;19;20181;-81
2023/09/30 00:44:19;;;;;;;17.80;8.17;;;13.80;99.90;;;;;;7303105;19;20180;-81
2023/09/30 00:46:48;;;;;;;17.87;7.90;;;13.80;99.90;;;;;;7306675;19;20186;-82
2023/09/30 00:49:18;;;;;;;16.30;7.73;;;13.70;99.90;;;;;;7330200;19;20229;-82
2023/09/30 00:51:49;;;;;;;18.23;8.47;;;13.70;99.90;;;;;;7306197;19;20639;-82
2023/09/30 00:54:24;;;;;;;17.20;8.07;;;13.80;99.90;;;;;;7307315;19;20174;-82
2023/09/30 00:56:57;;;;;;;16.53;7.50;;;13.80;99.90;;;;;;7306377;19;20244;-82
2023/09/30 00:59:26;;;;;;;19.10;8.13;;;13.70;99.90;;;;;;7307988;19;20561;-81
2023/09/30 01:02:00;;;;;;;15.93;8.07;;;13.70;99.90;;;;;;7307418;19;20229;-82
2023/09/30 01:04:31;;;;;;;18.83;9.00;;;13.80;99.90;;;;;;7309337;19;20193;-82
2023/09/30 01:06:58;;;;;;;18.93;8.90;;;13.90;99.90;;;;;;7304051;19;20212;-82
2023/09/30 01:09:43;;;;;;;20.00;9.00;;;14.00;99.90;;;;;;7306428;19;20241;-82
2023/09/30 01:12:11;;;;;;;22.10;9.63;;;14.10;99.90;;;;;;7203785;19;2004379;-82
2023/09/30 01:14:43;;;;;;;16.73;9.40;;;14.20;99.90;;;;;;7309517;19;20209;-82
2023/09/30 01:17:22;;;;;;;20.40;8.90;;;14.20;99.90;;;;;;7308603;19;20695;-82
2023/09/30 01:19:49;;;;;;;21.17;9.33;;;14.20;99.90;;;;;;7309754;19;20190;-82
2023/09/30 01:22:29;;;;;;;;;;;;;;;;;;;;;
2023/09/30 01:25:06;;;;;;;18.87;9.30;;;14.10;99.90;;;;;;7288870;19;20199;-81
2023/09/30 01:27:40;;;;;;;19.97;9.23;;;14.10;99.90;;;;;;7304895;19;20717;-82
2023/09/30 01:30:13;;;;;;;20.27;9.03;;;14.10;99.90;;;;;;7306185;19;20189;-82
2023/09/30 01:32:41;;;;;;;19.70;9.33;;;14.00;99.90;;;;;;7309297;19;20206;-82
2023/09/30 01:35:11;;;;;;;20.60;9.60;;;14.00;99.90;;;;;;7303751;19;20192;-82
2023/09/30 01:37:55;;;;;;;20.30;10.10;;;14.00;99.90;;;;;;7307742;19;20196;-83
2023/09/30 01:40:21;;;;;;;18.47;9.33;;;14.20;99.90;;;;;;7308519;19;20205;-82
2023/09/30 01:42:56;;;;;;;22.07;10.63;;;14.30;99.90;;;;;;7306971;19;20201;-82
2023/09/30 01:45:31;;;;;;;24.60;11.03;;;14.20;99.90;;;;;;7308703;19;20561;-82
2023/09/30 01:48:05;;;;;;;22.03;9.87;;;14.20;99.90;;;;;;7311673;19;20189;-82
2023/09/30 01:50:32;;;;;;;20.33;9.50;;;14.20;99.90;;;;;;7297000;19;20189;-81
2023/09/30 01:53:09;;;;;;;21.40;10.53;;;14.30;99.90;;;;;;7330040;19;20644;-82
2023/09/30 01:55:47;;;;;;;22.33;10.00;;;14.20;99.90;;;;;;7306257;19;20317;-82
2023/09/30 01:58:37;;;;;;;20.13;9.83;;;14.10;99.90;;;;;;7287353;19;20197;-82
2023/09/30 02:01:12;;;;;;;19.60;9.90;;;14.10;99.90;;;;;;7304627;19;20192;-82
2023/09/30 02:03:39;;;;;;;20.07;9.50;;;14.00;99.90;;;;;;7305927;19;20212;-82
2023/09/30 02:06:05;;;;;;;20.87;10.17;;;14.00;99.90;;;;;;7306951;19;20193;-82
2023/09/30 02:08:55;;;;;;;26.13;10.67;;;14.00;99.90;;;;;;7330110;19;20638;-82
2023/09/30 02:11:29;;;;;;;25.10;9.83;;;14.00;99.90;;;;;;7310791;19;20188;-82
2023/09/30 02:14:00;;;;;;;22.33;9.60;;;13.90;99.90;;;;;;7331347;19;20190;-83
2023/09/30 02:16:33;;;;;;;21.83;10.27;;;13.90;99.90;;;;;;7308787;19;20192;-82
2023/09/30 02:18:59;;;;;;;22.33;9.87;;;13.90;99.90;;;;;;7300812;19;20185;-82
2023/09/30 02:21:49;;;;;;;22.00;10.27;;;13.90;99.90;;;;;;7200172;19;2004577;-82
2023/09/30 02:24:24;;;;;;;24.37;9.97;;;13.90;99.90;;;;;;7330992;19;20190;-82
2023/09/30 02:26:54;;;;;;;24.53;10.87;;;13.90;99.90;;;;;;7264563;19;20200;-82
2023/09/30 02:29:26;;;;;;;26.63;12.07;;;14.00;99.90;;;;;;7288084;19;20190;-81
2023/09/30 02:32:02;;;;;;;21.77;11.10;;;14.00;99.90;;;;;;7309642;19;20263;-82
2023/09/30 02:34:35;;;;;;;24.90;11.47;;;14.00;99.90;;;;;;7305809;19;20189;-82
2023/09/30 02:37:01;;;;;;;24.23;11.80;;;13.90;99.90;;;;;;7298648;19;20197;-82
2023/09/30 02:39:38;;;;;;;25.23;11.03;;;13.80;99.90;;;;;;7319285;19;20198;-81
2023/09/30 02:42:07;;;;;;;21.63;11.50;;;13.70;99.90;;;;;;7304272;19;20197;-82
2023/09/30 02:44:57;;;;;;;25.10;11.93;;;13.80;99.90;;;;;;7307243;19;20230;-82
2023/09/30 02:47:24;;;;;;;22.30;11.70;;;13.90;99.90;;;;;;7305605;19;20201;-82
2023/09/30 02:49:54;;;;;;;24.20;10.10;;;13.90;99.90;;;;;;7322811;19;20247;-83
2023/09/30 02:52:43;;;;;;;21.67;9.67;;;13.90;99.90;;;;;;7283500;19;21095;-82
2023/09/30 02:55:10;;;;;;;21.27;10.23;;;13.90;99.90;;;;;;7305090;19;20188;-82
2023/09/30 02:57:38;;;;;;;25.00;11.47;;;13.90;99.90;;;;;;7300810;19;20203;-82
2023/09/30 03:00:33;;;;;;;23.37;11.00;;;13.90;99.90;;;;;;7305565;19;20185;-84
2023/09/30 03:03:03;;;;;;;26.43;11.30;;;13.90;99.90;;;;;;7284402;19;20652;-82
2023/09/30 03:05:40;;;;;;;22.17;10.87;;;13.90;99.90;;;;;;7304540;19;20254;-82
2023/09/30 03:08:11;;;;;;;17.70;9.87;;;13.80;99.90;;;;;;7306680;19;20177;-82
2023/09/30 03:10:46;;;;;;;18.77;9.57;;;13.80;99.90;;;;;;7303174;19;20268;-82
2023/09/30 03:13:18;;;;;;;18.07;9.20;;;13.70;99.90;;;;;;7306311;19;20188;-82
2023/09/30 03:15:52;;;;;;;21.67;10.00;;;13.70;99.90;;;;;;7307645;19;20196;-82
2023/09/30 03:18:31;;;;;;;22.23;11.30;;;13.60;99.90;;;;;;7303409;19;20200;-82
2023/09/30 03:21:13;;;;;;;21.43;9.17;;;13.70;99.90;;;;;;7298659;19;20222;-82
2023/09/30 03:23:42;;;;;;;20.23;9.67;;;13.70;99.90;;;;;;7195485;19;2004615;-82
2023/09/30 03:26:17;;;;;;;27.17;11.87;;;13.60;99.90;;;;;;7294407;19;20193;-82
2023/09/30 03:28:53;;;;;;;21.47;10.37;;;13.50;99.90;;;;;;7295159;19;20180;-83
2023/09/30 03:31:22;;;;;;;27.87;12.67;;;13.50;99.90;;;;;;7296936;19;20220;-82
2023/09/30 03:33:53;;;;;;;25.47;12.37;;;13.60;99.90;;;;;;7294042;19;20181;-82
2023/09/30 03:36:31;;;;;;;29.77;13.17;;;13.60;99.90;;;;;;7296696;19;20196;-82
2023/09/30 03:39:05;;;;;;;25.70;12.70;;;13.50;99.90;;;;;;7297116;19;20195;-82
2023/09/30 03:41:44;;;;;;;28.30;12.70;;;13.50;99.90;;;;;;7280613;19;20195;-81
2023/09/30 03:44:21;;;;;;;27.77;12.70;;;13.50;99.90;;;;;;7303967;19;20192;-83
2023/09/30 03:46:59;;;;;;;24.73;13.80;;;13.60;99.90;;;;;;7303826;19;20195;-83
2023/09/30 03:49:25;;;;;;;33.13;13.47;;;13.50;99.90;;;;;;7303230;19;20193;-82
2023/09/30 03:52:05;;;;;;;29.80;13.33;;;13.50;99.90;;;;;;7305145;19;20201;-82
2023/09/30 03:54:34;;;;;;;29.77;12.70;;;13.50;99.90;;;;;;7279543;19;20184;-83
2023/09/30 03:57:04;;;;;;;29.20;12.93;;;13.40;99.90;;;;;;7300412;19;20184;-82
2023/09/30 03:59:46;;;;;;;28.33;12.97;;;13.30;99.90;;;;;;7321178;19;20220;-82
2023/09/30 04:02:15;;;;;;;29.27;12.87;;;13.20;99.90;;;;;;7199642;19;2004530;-82
2023/09/30 04:04:41;;;;;;;26.83;13.00;;;13.20;99.90;;;;;;7302660;19;20338;-82
2023/09/30 04:07:21;;;;;;;27.83;12.63;;;13.20;99.90;;;;;;7304716;19;20189;-82
2023/09/30 04:09:56;;;;;;;25.83;12.47;;;13.10;99.90;;;;;;7301647;19;20193;-83
2023/09/30 04:12:37;;;;;;;25.70;12.33;;;13.10;99.90;;;;;;7304750;19;20635;-82
2023/09/30 04:15:22;;;;;;;25.60;12.17;;;13.00;99.90;;;;;;7285556;19;20192;-83
2023/09/30 04:17:58;;;;;;;29.73;12.90;;;13.00;99.90;;;;;;7302752;19;20219;-82
2023/09/30 04:20:31;;;;;;;26.53;12.30;;;12.90;99.90;;;;;;7306100;19;20191;-83
2023/09/30 04:23:02;;;;;;;28.07;13.07;;;12.90;99.90;;;;;;7305808;19;20282;-82
2023/09/30 04:25:31;;;;;;;26.77;12.73;;;12.80;99.90;;;;;;7307049;19;20301;-83
2023/09/30 04:28:03;;;;;;;29.77;12.77;;;12.80;99.90;;;;;;7305061;19;20191;-82
2023/09/30 04:30:35;;;;;;;30.03;13.30;;;12.80;99.90;;;;;;7305086;19;20190;-82
2023/09/30 04:33:13;;;;;;;27.53;12.93;;;12.80;99.90;;;;;;7207118;19;2004625;-82
2023/09/30 04:35:40;;;;;;;31.40;14.10;;;12.70;99.90;;;;;;7305675;19;20200;-82
2023/09/30 04:38:15;;;;;;;25.77;13.43;;;12.80;99.90;;;;;;7306510;19;20689;-82
2023/09/30 04:40:51;;;;;;;31.93;14.13;;;12.80;99.90;;;;;;7305832;19;20200;-82
2023/09/30 04:43:32;;;;;;;30.60;14.47;;;12.70;99.90;;;;;;7309077;19;20191;-82
2023/09/30 04:46:01;;;;;;;30.87;14.03;;;12.80;99.90;;;;;;7308812;19;20188;-81
2023/09/30 04:48:32;;;;;;;33.00;13.93;;;12.90;99.90;;;;;;7320008;19;20195;-82
2023/09/30 04:51:04;;;;;;;31.57;13.90;;;12.80;99.90;;;;;;7308319;19;20199;-83
2023/09/30 04:53:41;;;;;;;33.50;13.87;;;12.80;99.90;;;;;;7308536;19;20188;-82
2023/09/30 04:56:07;;;;;;;34.93;14.87;;;12.80;99.90;;;;;;7204680;19;2004419;-82
2023/09/30 04:58:36;;;;;;;28.33;13.03;;;12.80;99.90;;;;;;7303518;19;20192;-82
2023/09/30 05:01:01;;;;;;;29.80;14.30;;;12.80;99.90;;;;;;7320332;19;20195;-81
2023/09/30 05:03:30;;;;;;;38.97;13.80;;;12.80;99.90;;;;;;7321366;19;20251;-82
2023/09/30 05:05:58;;;;;;;36.33;14.50;;;12.80;99.90;;;;;;7307388;19;20208;-82
2023/09/30 05:08:24;;;;;;;32.73;13.63;;;12.70;99.90;;;;;;7329533;19;20203;-82
2023/09/30 05:10:56;;;;;;;30.93;13.87;;;12.80;99.90;;;;;;7308477;19;20214;-82
2023/09/30 05:13:33;;;;;;;33.67;13.97;;;12.70;99.90;;;;;;7316209;19;20193;-83
2023/09/30 05:16:01;;;;;;;28.67;12.73;;;12.80;99.90;;;;;;7313363;19;20196;-82
2023/09/30 05:18:30;;;;;;;22.70;10.63;;;12.80;99.90;;;;;;7332720;19;20224;-83
2023/09/30 05:21:10;;;;;;;18.30;9.73;;;12.80;99.90;;;;;;7308827;19;20194;-82
2023/09/30 05:23:39;;;;;;;23.57;9.70;;;12.70;99.90;;;;;;7309598;19;20260;-82
2023/09/30 05:26:08;;;;;;;27.33;11.47;;;12.70;99.90;;;;;;7303317;19;20192;-82
2023/09/30 05:28:34;;;;;;;26.57;11.20;;;12.70;99.90;;;;;;7176008;19;2004688;-82
2023/09/30 05:31:02;;;;;;;26.20;12.13;;;12.70;99.90;;;;;;7323564;19;20202;-82
2023/09/30 05:33:32;;;;;;;29.13;12.77;;;12.70;99.90;;;;;;7300721;19;20726;-82
2023/09/30 05:35:59;;;;;;;32.10;12.63;;;12.80;99.90;;;;;;7300204;19;20690;-82
2023/09/30 05:38:31;;;;;;;36.20;13.73;;;12.80;99.90;;;;;;7304423;19;20166;-82
2023/09/30 05:41:06;;;;;;;33.90;13.13;;;12.90;99.90;;;;;;7287747;19;20215;-82
2023/09/30 05:43:32;;;;;;;33.40;13.03;;;13.00;99.90;;;;;;7315581;19;20195;-82
2023/09/30 05:45:58;;;;;;;31.07;13.33;;;12.90;99.90;;;;;;7333249;19;20203;-82
2023/09/30 05:48:26;;;;;;;35.50;13.80;;;12.90;99.90;;;;;;7352624;19;20196;-82
2023/09/30 05:50:52;;;;;;;34.60;13.47;;;12.90;99.90;;;;;;7310553;19;20222;-82
2023/09/30 05:53:28;;;;;;;31.03;13.03;;;12.90;99.90;;;;;;7329698;19;20255;-82
2023/09/30 05:56:05;;;;;;;38.70;13.13;;;13.00;99.90;;;;;;7309659;19;20519;-81
2023/09/30 05:58:42;;;;;;;28.23;12.67;;;13.00;99.90;;;;;;7286963;19;20198;-82
2023/09/30 06:01:11;;;;;;;32.67;12.90;;;12.90;99.90;;;;;;7307323;19;20220;-82
2023/09/30 06:03:49;;;;;;;26.67;11.57;;;13.00;99.90;;;;;;7309872;19;20220;-82
2023/09/30 06:06:30;;;;;;;25.90;10.87;;;13.00;99.90;;;;;;7307201;19;20195;-82
2023/09/30 06:09:41;;;;;;;24.23;9.87;;;13.10;99.90;;;;;;7276766;19;20189;-82
2023/09/30 06:12:12;;;;;;;25.77;10.40;;;12.90;99.90;;;;;;7289056;19;20218;-82
2023/09/30 06:14:53;;;;;;;25.13;9.73;;;12.80;99.90;;;;;;7327696;19;20192;-84
2023/09/30 06:17:22;;;;;;;20.80;9.53;;;12.90;99.90;;;;;;7328138;19;20185;-83
2023/09/30 06:19:50;;;;;;;21.50;9.83;;;13.00;99.90;;;;;;7303831;19;20196;-83
2023/09/30 06:22:26;;;;;;;20.47;9.70;;;13.10;99.90;;;;;;7302734;19;20193;-82
2023/09/30 06:24:54;;;;;;;23.83;10.07;;;13.20;99.90;;;;;;7307332;19;20194;-83
2023/09/30 06:27:26;;;;;;;23.20;10.03;;;13.40;99.90;;;;;;7296231;19;20243;-83
2023/09/30 06:29:53;;;;;;;19.17;9.07;;;13.60;99.90;;;;;;7303918;19;20212;-83
2023/09/30 06:32:23;;;;;;;23.03;8.13;;;14.00;99.90;;;;;;7307750;19;20177;-82
2023/09/30 06:34:52;;;;;;;17.80;8.30;;;14.40;99.90;;;;;;7298527;19;20222;-83
2023/09/30 06:37:29;;;;;;;16.07;7.87;;;14.80;99.90;;;;;;7306624;19;20202;-83
2023/09/30 06:40:04;;;;;;;19.03;7.53;;;15.50;99.90;;;;;;7276347;19;20203;-83
2023/09/30 06:42:52;;;;;;;17.10;7.20;;;16.10;99.90;;;;;;7285126;19;20217;-82
2023/09/30 06:45:24;;;;;;;16.50;7.60;;;16.70;99.90;;;;;;7308908;19;20189;-83
2023/09/30 06:47:50;;;;;;;13.40;6.63;;;17.30;99.90;;;;;;7309934;19;20573;-83
2023/09/30 06:50:21;;;;;;;18.50;7.00;;;17.90;99.90;;;;;;7308423;19;20217;-83
2023/09/30 06:53:09;;;;;;;15.87;6.90;;;18.50;99.90;;;;;;7305764;19;20201;-82
2023/09/30 06:56:07;;;;;;;19.03;7.63;;;19.20;99.90;;;;;;7204778;19;2004604;-83
2023/09/30 06:58:50;;;;;;;16.30;7.50;;;20.00;99.90;;;;;;7286712;19;20193;-83
2023/09/30 07:01:19;;;;;;;16.93;6.70;;;20.50;99.90;;;;;;7305734;19;20676;-84
2023/09/30 07:03:48;;;;;;;14.67;6.83;;;20.90;99.90;;;;;;7299660;19;20190;-83
2023/09/30 07:06:24;;;;;;;13.87;7.40;;;21.40;99.90;;;;;;7303632;19;20194;-83
2023/09/30 07:09:04;;;;;;;15.23;7.10;;;21.70;99.90;;;;;;7306048;19;20223;-83
2023/09/30 07:11:33;;;;;;;15.83;7.00;;;22.20;99.90;;;;;;7306482;19;20220;-83
2023/09/30 07:14:09;;;;;;;14.87;7.30;;;22.40;99.90;;;;;;7305579;19;20206;-84
2023/09/30 07:16:43;;;;;;;14.40;7.00;;;22.60;99.90;;;;;;7285088;19;20192;-83
2023/09/30 07:19:21;;;;;;;16.27;7.40;;;23.00;99.90;;;;;;7289260;19;20193;-84
2023/09/30 07:21:46;;;;;;;18.73;7.50;;;23.40;99.90;;;;;;7302115;19;20248;-83
2023/09/30 07:24:23;;;;;;;20.00;8.70;;;23.50;99.90;;;;;;7305615;19;20196;-84
2023/09/30 07:27:17;;;;;;;16.30;8.07;;;23.80;99.90;;;;;;7310495;19;20189;-84
2023/09/30 07:30:15;;;;;;;20.52;8.15;;;23.90;99.90;;;;;;7207541;19;2004492;-84
2023/09/30 07:32:50;;;;;;;14.88;7.47;;;24.80;99.90;;;;;;7326143;19;20193;-83
2023/09/30 07:35:24;;;;;;;16.30;6.05;;;25.40;99.90;;;;;;7317043;19;20569;-84
2023/09/30 07:37:57;;;;;;;17.77;6.35;;;26.00;99.90;;;;;;7340095;19;20196;-83
2023/09/30 07:40:52;;;;;;;20.20;5.47;;;26.20;99.90;;;;;;7323626;19;20198;-83
2023/09/30 07:43:20;;;;;;;19.67;5.57;;;26.70;99.90;;;;;;7219883;19;2004783;-84
2023/09/30 07:46:07;;;;;;;15.60;5.00;;;27.10;99.90;;;;;;7322399;19;20188;-84
2023/09/30 07:49:06;;;;;;;19.00;5.32;;;27.80;99.90;;;;;;7212251;19;2004221;-85
2023/09/30 07:51:39;;;;;;;17.48;5.57;;;28.50;99.90;;;;;;7304982;19;20195;-81
2023/09/30 07:54:21;;;;;;;20.52;5.53;;;28.30;99.90;;;;;;7341236;19;20209;-82
2023/09/30 07:56:50;;;;;;;19.02;6.03;;;28.40;99.90;;;;;;7321182;19;20196;-81
2023/09/30 07:59:20;;;;;;;14.20;5.50;;;28.50;99.90;;;;;;7321496;19;20185;-83
2023/09/30 08:01:48;;;;;;;20.08;6.15;;;28.80;99.90;;;;;;7319724;19;20189;-82
2023/09/30 08:04:19;;;;;;;19.85;5.80;;;29.50;99.90;;;;;;7322278;19;20192;-82
2023/09/30 08:09:39;;;;;;;17.27;5.63;;;29.80;98.50;;;;;;7319036;19;20256;-83
2023/09/30 08:12:06;;;;;;;17.65;5.70;;;29.70;97.30;;;;;;7294119;19;20184;-82
2023/09/30 08:14:33;;;;;;;17.27;5.68;;;28.80;97.70;;;;;;7317575;19;20215;-82
2023/09/30 08:17:17;;;;;;;18.73;5.53;;;28.80;98.70;;;;;;7339497;19;20180;-82
2023/09/30 08:19:49;;;;;;;15.27;5.70;;;27.90;99.50;;;;;;7211456;19;2004869;-82
2023/09/30 08:22:15;;;;;;;21.60;5.43;;;27.10;99.90;;;;;;7315600;19;20200;-82
2023/09/30 08:24:46;;;;;;;17.33;5.70;;;26.20;99.90;;;;;;7312601;19;20204;-81
2023/09/30 08:27:25;;;;;;;18.60;5.63;;;24.90;99.90;;;;;;7314180;19;20188;-82
2023/09/30 08:29:59;;;;;;;21.43;6.20;;;24.00;99.90;;;;;;7317224;19;20184;-82
2023/09/30 08:32:29;;;;;;;22.77;6.50;;;23.30;99.90;;;;;;7317564;19;20192;-83
2023/09/30 08:34:56;;;;;;;20.30;5.93;;;22.80;99.90;;;;;;7316088;19;20192;-82
2023/09/30 08:37:25;;;;;;;22.77;6.50;;;22.50;99.90;;;;;;7313656;19;20206;-82
2023/09/30 08:39:53;;;;;;;25.27;6.20;;;22.30;99.90;;;;;;7314111;19;20217;-82
2023/09/30 08:42:20;;;;;;;21.90;5.97;;;22.10;99.90;;;;;;7315812;19;20192;-83
2023/09/30 08:44:55;;;;;;;21.87;5.90;;;22.00;99.90;;;;;;7312795;19;20196;-84
2023/09/30 08:47:34;;;;;;;21.47;5.87;;;21.90;99.90;;;;;;7309415;19;20240;-83
2023/09/30 08:50:10;;;;;;;19.57;5.40;;;21.90;99.90;;;;;;7307246;19;20213;-84
2023/09/30 08:52:40;;;;;;;20.30;5.50;;;21.90;99.90;;;;;;7286913;19;20200;-83
2023/09/30 08:55:13;;;;;;;22.70;6.10;;;21.80;99.90;;;;;;7306199;19;20191;-83
2023/09/30 08:57:41;;;;;;;22.90;6.27;;;21.60;99.90;;;;;;7306405;19;20630;-84
2023/09/30 09:00:29;;;;;;;22.93;6.77;;;21.60;99.90;;;;;;7307629;19;20195;-84
2023/09/30 09:02:55;;;;;;;23.70;6.53;;;21.40;99.90;;;;;;7308469;19;20553;-84
2023/09/30 09:05:22;;;;;;;21.63;6.73;;;21.40;99.90;;;;;;7397959;19;20198;-84
2023/09/30 09:07:59;;;;;;;22.23;7.17;;;21.20;99.90;;;;;;7377667;19;20196;-83
2023/09/30 09:11:00;;;;;;;22.50;7.17;;;21.00;99.90;;;;;;7298396;19;20761;-82
2023/09/30 09:13:49;;;;;;;21.50;6.40;;;20.90;99.90;;;;;;7208268;19;2005827;-84
2023/09/30 09:16:21;;;;;;;20.67;6.03;;;21.10;99.90;;;;;;7311803;19;20214;-83
2023/09/30 09:18:56;;;;;;;20.77;5.37;;;20.80;99.90;;;;;;7312423;19;20186;-83
2023/09/30 09:21:31;;;;;;;21.60;5.03;;;20.80;99.90;;;;;;7310788;19;20182;-84
2023/09/30 09:23:58;;;;;;;23.43;5.70;;;20.80;99.90;;;;;;7313571;19;20190;-83
2023/09/30 09:26:35;;;;;;;22.43;5.20;;;21.00;99.90;;;;;;7312111;19;20203;-83
2023/09/30 09:29:16;;;;;;;22.47;5.07;;;21.20;99.90;;;;;;7307296;19;20191;-83
2023/09/30 09:32:05;;;;;;;17.97;4.73;;;21.40;99.90;;;;;;7311229;19;20192;-83
2023/09/30 09:34:40;;;;;;;17.13;4.70;;;21.40;99.90;;;;;;7288725;19;20193;-83
2023/09/30 09:37:24;;;;;;;19.07;5.43;;;21.40;99.90;;;;;;7308636;19;20188;-83
2023/09/30 09:39:59;;;;;;;15.70;4.60;;;21.40;99.90;;;;;;7312451;19;20885;-84
2023/09/30 09:42:37;;;;;;;23.67;5.23;;;21.50;99.90;;;;;;7310989;19;20205;-84
2023/09/30 09:45:26;;;;;;;20.27;4.50;;;21.70;99.90;;;;;;7287382;19;20179;-83
2023/09/30 09:47:54;;;;;;;18.60;4.33;;;22.80;99.90;;;;;;7311512;19;20214;-83
2023/09/30 09:50:52;;;;;;;17.00;3.57;;;25.00;99.90;;;;;;7308948;19;20209;-85
2023/09/30 09:53:25;;;;;;;17.95;4.50;;;27.00;99.90;;;;;;7197760;19;2004613;-83
2023/09/30 09:56:09;;;;;;;16.75;3.97;;;28.90;99.90;;;;;;7301789;19;20242;-84
2023/09/30 09:58:54;;;;;;;16.65;4.53;;;29.80;99.90;;;;;;7227189;19;2004601;-84
2023/09/30 10:01:26;;;;;;;17.25;4.50;;;29.10;99.90;;;;;;7311578;19;20191;-81
2023/09/30 10:03:56;;;;;;;14.25;4.00;;;28.30;99.90;;;;;;7306807;19;20185;-82
2023/09/30 10:06:39;;;;;;;17.88;4.18;;;28.60;99.90;;;;;;7309558;19;20191;-82
2023/09/30 10:09:31;;;;;;;12.93;3.67;;;27.90;99.90;;;;;;7195840;19;2004539;-84
2023/09/30 10:12:03;;;;;;;16.30;4.53;;;27.30;99.90;;;;;;7300486;19;20196;-82
2023/09/30 10:14:47;;;;;;;15.07;3.90;;;28.00;99.90;;;;;;7304551;19;20262;-83
2023/09/30 10:18:07;;;;;;;15.25;4.28;;;29.30;99.90;;;;;;7202066;19;2004435;-84
2023/09/30 10:20:41;;;;;;;13.93;4.28;;;30.50;99.90;;;;;;7064887;19;2004715;-82
2023/09/30 10:23:38;;;;;;;12.07;3.65;;;30.80;99.90;;;;;;7301939;19;20650;-83
2023/09/30 10:26:17;;;;;;;14.55;3.60;;;31.20;99.90;;;;;;7286772;19;20189;-83
2023/09/30 10:29:11;;;;;;;13.93;3.63;;;31.40;97.10;;;;;;7289773;19;20181;-83
2023/09/30 10:32:17;;;;;;;13.15;3.55;;;31.90;97.30;;;;;;7309276;19;20188;-84
2023/09/30 10:35:06;;;;;;;12.13;3.33;;;32.40;95.80;;;;;;7352452;19;20228;-81
2023/09/30 10:37:33;;;;;;;13.50;3.60;;;32.80;93.80;;;;;;7331544;19;20259;-85
2023/09/30 10:40:07;;;;;;;11.00;3.53;;;32.30;94.30;;;;;;7192417;19;2004742;-83
2023/09/30 10:43:06;;;;;;;12.18;3.63;;;31.60;94.80;;;;;;7294970;19;20195;-83
2023/09/30 10:45:48;;;;;;;14.85;3.85;;;30.80;95.20;;;;;;7306226;19;20244;-81
2023/09/30 10:48:52;;;;;;;14.93;3.60;;;30.20;96.50;;;;;;7200746;19;2004489;-81
2023/09/30 10:51:38;;;;;;;12.48;3.40;;;30.20;94.60;;;;;;7193074;19;2004677;-83
2023/09/30 10:54:36;;;;;;;11.93;4.00;;;30.90;94.80;;;;;;7273867;19;20190;-84
2023/09/30 10:57:10;;;;;;;12.27;3.58;;;31.80;93.40;;;;;;7202835;19;2004759;-85
2023/09/30 10:59:42;;;;;;;13.07;3.63;;;32.40;91.20;;;;;;7282315;19;20181;-84
2023/09/30 11:02:25;;;;;;;16.35;3.92;;;32.90;91.30;;;;;;7211199;19;2004669;-83
2023/09/30 11:04:56;;;;;;;12.80;3.22;;;33.30;89.50;;;;;;7305014;19;20274;-83
2023/09/30 11:07:43;;;;;;;12.68;3.58;;;34.20;89.50;;;;;;7304676;19;20204;-82
2023/09/30 11:10:32;;;;;;;12.80;3.25;;;34.00;85.70;;;;;;7196408;19;2006429;-84
2023/09/30 11:13:01;;;;;;;10.75;3.40;;;33.30;85.40;;;;;;7305650;19;20237;-83
2023/09/30 11:15:30;;;;;;;11.20;3.40;;;32.20;85.90;;;;;;7307158;19;20234;-83
2023/09/30 11:18:32;;;;;;;12.07;3.38;;;31.30;88.30;;;;;;7298386;19;20229;-83
2023/09/30 11:21:20;;;;;;;12.13;3.28;;;31.20;90.70;;;;;;7189903;19;2004432;-83
2023/09/30 11:23:46;;;;;;;13.55;3.33;;;32.20;87.20;;;;;;7265211;19;20203;-83
2023/09/30 11:26:14;;;;;;;12.07;3.15;;;32.40;84.10;;;;;;7306242;19;20201;-83
2023/09/30 11:28:45;;;;;;;11.25;3.40;;;31.40;84.10;;;;;;7304169;19;20201;-84
2023/09/30 11:31:14;;;;;;;13.60;3.50;;;30.30;86.50;;;;;;7306335;19;20199;-82
2023/09/30 11:33:57;;;;;;;12.52;3.72;;;30.60;89.00;;;;;;7305843;19;20184;-82
2023/09/30 11:36:28;;;;;;;12.90;3.33;;;30.90;88.50;;;;;;7328331;19;20193;-83
2023/09/30 11:39:06;;;;;;;9.95;3.22;;;30.90;85.00;;;;;;7304579;19;20205;-85
2023/09/30 11:41:41;;;;;;;14.18;3.28;;;30.10;86.90;;;;;;7286026;19;20188;-84
2023/09/30 11:44:14;;;;;;;13.40;3.40;;;30.20;88.50;;;;;;7304944;19;20224;-84
2023/09/30 11:47:05;;;;;;;11.15;3.20;;;29.80;88.70;;;;;;7274642;19;20188;-82
2023/09/30 11:49:48;;;;;;;12.30;3.15;;;29.70;90.10;;;;;;7303152;19;20208;-83
2023/09/30 11:52:29;;;;;;;12.23;3.85;;;30.50;91.50;;;;;;7252785;19;20201;-83
2023/09/30 11:54:58;;;;;;;11.45;3.28;;;30.90;88.80;;;;;;7282254;19;20219;-85
2023/09/30 11:57:30;;;;;;;10.93;3.58;;;31.10;89.40;;;;;;7302757;19;21113;-83
2023/09/30 12:00:12;;;;;;;14.98;4.07;;;31.50;86.80;;;;;;7295131;19;20340;-85
2023/09/30 12:02:50;;;;;;;14.30;4.03;;;31.80;86.30;;;;;;7305163;19;20210;-82
2023/09/30 12:05:22;;;;;;;10.30;3.20;;;32.00;84.80;;;;;;7303237;19;20192;-85
2023/09/30 12:07:54;;;;;;;11.63;3.25;;;32.40;84.40;;;;;;7295870;19;20200;-84
2023/09/30 12:10:22;;;;;;;11.02;3.13;;;32.90;84.70;;;;;;7305251;19;20256;-84
2023/09/30 12:12:52;;;;;;;10.85;3.28;;;32.70;82.20;;;;;;7295287;19;20200;-83
2023/09/30 12:15:24;;;;;;;11.50;3.05;;;32.70;80.60;;;;;;7306456;19;20214;-84
2023/09/30 12:18:06;;;;;;;11.52;3.53;;;31.70;80.10;;;;;;7299435;19;20625;-82
2023/09/30 12:20:45;;;;;;;12.25;3.33;;;30.80;81.10;;;;;;7201445;19;2004615;-83
2023/09/30 12:23:22;;;;;;;11.05;2.97;;;30.60;82.20;;;;;;7334248;19;20189;-85
2023/09/30 12:25:48;;;;;;;10.02;2.78;;;31.10;81.40;;;;;;7314267;19;20196;-82
2023/09/30 12:28:15;;;;;;;9.02;2.75;;;30.50;78.10;;;;;;7314380;19;20185;-83
2023/09/30 12:30:52;;;;;;;8.25;2.80;;;29.80;78.40;;;;;;7308137;19;20221;-81
2023/09/30 12:33:19;;;;;;;9.50;2.60;;;29.60;78.70;;;;;;7282607;19;20188;-85
2023/09/30 12:35:51;;;;;;;11.85;3.10;;;29.70;82.40;;;;;;7311165;19;20684;-84
2023/09/30 12:38:22;;;;;;;9.63;2.53;;;30.50;82.10;;;;;;7297925;19;20217;-81
2023/09/30 12:40:58;;;;;;;8.25;2.22;;;31.20;78.00;;;;;;7309431;19;20197;-84
2023/09/30 12:43:34;;;;;;;8.32;2.78;;;30.70;76.70;;;;;;7309745;19;20205;-81
2023/09/30 12:46:02;;;;;;;11.00;3.40;;;30.60;78.90;;;;;;7309249;19;20199;-83
2023/09/30 12:48:30;;;;;;;7.82;2.75;;;30.20;80.10;;;;;;7308153;19;20180;-83
2023/09/30 12:50:57;;;;;;;11.38;3.05;;;30.40;81.60;;;;;;7306903;19;20193;-83
2023/09/30 12:53:23;;;;;;;10.38;3.40;;;29.70;80.00;;;;;;7308399;19;20198;-82
2023/09/30 12:55:49;;;;;;;14.85;3.78;;;28.10;83.60;;;;;;7309991;19;20205;-84
2023/09/30 12:58:17;;;;;;;11.88;2.80;;;27.50;87.60;;;;;;7306953;19;20206;-82
2023/09/30 13:00:47;;;;;;;11.30;2.92;;;27.10;88.60;;;;;;7305286;19;21260;-84
2023/09/30 13:03:21;;;;;;;12.88;3.38;;;27.00;89.20;;;;;;7308694;19;20189;-83
2023/09/30 13:05:50;;;;;;;12.57;3.15;;;26.90;90.70;;;;;;7308511;19;20236;-81
2023/09/30 13:08:33;;;;;;;10.63;2.78;;;26.80;92.20;;;;;;7308290;19;20313;-82
2023/09/30 13:11:04;;;;;;;10.10;2.83;;;26.70;94.10;;;;;;7307338;19;20189;-82
2023/09/30 13:13:33;;;;;;;9.27;2.63;;;26.60;90.50;;;;;;7307334;19;20229;-82
2023/09/30 13:16:23;;;;;;;11.60;2.78;;;25.70;91.80;;;;;;7309305;19;20222;-83